Airfield :
LOGIN :

Register | Disclaimer

   EN    FR    IT 

 










Legend :    VFR   Marginal VFR   IFR   Intensive IFR   Very Intensive IFR
Visi :
Ceiling :
>= 8 km
>= 3000ft
5 to 8 km
1000 to 3000 ft
1500m to 5 km
500 to 1000 ft
800 to 1500m
200 to 500 ft
< 800m
< 200 ft
Symbols :   Thunderstorms  Fog  Heavy snow  Heavy precipitations  Wind > 20 kt
SIGMETs :     Misc.  Thunderstorms  Icing  Turbulence  Mountain Waves  Volcanic Ashes







- Airport Elevation : 1989 ft
- IATA code : KLV


LKKV - Karlovy Vary

CURRENT METAR :
  • 232000Z VRB01KT 9999 OVC011 06/04 Q1019

EXPIRED METARs :
  • 231900Z 00000KT 9999 OVC013 06/04 Q1018
  • 231830Z 00000KT 9999 OVC013 06/04 Q1018
  • 231800Z 03002KT 9999 OVC013 06/04 Q1018
  • 231730Z VRB01KT 9999 BKN011 OVC026 06/04 Q1017
  • 231700Z VRB02KT 9999 OVC011 06/04 Q1017

TAF TAF LKKV
Valid from the 23 at 18:00 until the 25 at 00:00 UTC


231700Z 2318/2500 VRB02KT 7000 BKN012
TEMPO 2318/2406 3000 BR OVC005
PROB30
TEMPO 2318/2406 1400 BR OVC002
BECMG 2406/2408 06004KT
BECMG 2409/2412 9999 SCT017
No reported NOTAMs for that airfield.



MET'MAP, your aeronautical weather chart ! - Copyright ORBIFLY December 2007 - Disclaimer

ORBIFLY MET'MAP TEAM :

Programming & Development : Alexandra Zaïnal
Concept & Development : Baudouin d'Aumeries
Co-Development & Prog : Marc-Olivier Méhu
Technical & hardware support : Manuel Goepfert

Contact : metmap@orbifly.com




SOURCES & CREDITS :

   NOAA